sensor_id;sensor_type;location;lat;lon;timestamp;P1;durP1;ratioP1;P2;durP2;ratioP2
8139;SDS011;4111;50.972;7.072;2023-02-01T00:00:26;13.87;;;6.67;;
8139;SDS011;4111;50.972;7.072;2023-02-01T00:02:52;14.93;;;6.90;;
8139;SDS011;4111;50.972;7.072;2023-02-01T00:05:19;16.40;;;7.27;;
8139;SDS011;4111;50.972;7.072;2023-02-01T00:07:46;17.70;;;7.40;;
8139;SDS011;4111;50.972;7.072;2023-02-01T00:10:14;18.70;;;6.57;;
8139;SDS011;4111;50.972;7.072;2023-02-01T00:12:41;15.50;;;6.30;;
8139;SDS011;4111;50.972;7.072;2023-02-01T00:15:07;14.00;;;6.13;;
8139;SDS011;4111;50.972;7.072;2023-02-01T00:17:34;15.37;;;5.70;;
8139;SDS011;4111;50.972;7.072;2023-02-01T00:20:01;16.33;;;6.43;;
8139;SDS011;4111;50.972;7.072;2023-02-01T00:22:28;12.20;;;6.10;;
8139;SDS011;4111;50.972;7.072;2023-02-01T00:24:54;19.30;;;6.83;;
8139;SDS011;4111;50.972;7.072;2023-02-01T00:27:21;16.67;;;6.90;;
8139;SDS011;4111;50.972;7.072;2023-02-01T00:29:47;15.20;;;7.67;;
8139;SDS011;4111;50.972;7.072;2023-02-01T00:32:14;13.57;;;5.90;;
8139;SDS011;4111;50.972;7.072;2023-02-01T00:34:41;13.17;;;6.30;;
8139;SDS011;4111;50.972;7.072;2023-02-01T00:37:07;14.30;;;6.20;;
8139;SDS011;4111;50.972;7.072;2023-02-01T00:39:34;19.33;;;6.80;;
8139;SDS011;4111;50.972;7.072;2023-02-01T00:42:00;18.63;;;7.13;;
8139;SDS011;4111;50.972;7.072;2023-02-01T00:44:28;18.93;;;6.77;;
8139;SDS011;4111;50.972;7.072;2023-02-01T00:46:59;16.27;;;6.73;;
8139;SDS011;4111;50.972;7.072;2023-02-01T00:49:26;11.80;;;5.77;;
8139;SDS011;4111;50.972;7.072;2023-02-01T00:51:53;13.43;;;5.50;;
8139;SDS011;4111;50.972;7.072;2023-02-01T00:54:20;14.10;;;6.50;;
8139;SDS011;4111;50.972;7.072;2023-02-01T00:56:46;16.63;;;6.33;;
8139;SDS011;4111;50.972;7.072;2023-02-01T00:59:13;15.87;;;6.30;;
8139;SDS011;4111;50.972;7.072;2023-02-01T01:01:40;11.93;;;6.07;;
8139;SDS011;4111;50.972;7.072;2023-02-01T01:04:06;14.20;;;5.77;;
8139;SDS011;4111;50.972;7.072;2023-02-01T01:06:33;16.07;;;5.43;;
8139;SDS011;4111;50.972;7.072;2023-02-01T01:09:01;16.00;;;5.00;;
8139;SDS011;4111;50.972;7.072;2023-02-01T01:11:30;13.50;;;4.80;;
8139;SDS011;4111;50.972;7.072;2023-02-01T01:13:59;21.60;;;5.13;;
8139;SDS011;4111;50.972;7.072;2023-02-01T01:16:27;15.33;;;5.33;;
8139;SDS011;4111;50.972;7.072;2023-02-01T01:18:55;15.03;;;4.23;;
8139;SDS011;4111;50.972;7.072;2023-02-01T01:21:22;10.37;;;4.83;;
8139;SDS011;4111;50.972;7.072;2023-02-01T01:23:49;11.07;;;4.00;;
8139;SDS011;4111;50.972;7.072;2023-02-01T01:26:17;19.10;;;4.90;;
8139;SDS011;4111;50.972;7.072;2023-02-01T01:28:45;13.07;;;4.93;;
8139;SDS011;4111;50.972;7.072;2023-02-01T01:31:12;13.10;;;4.20;;
8139;SDS011;4111;50.972;7.072;2023-02-01T01:33:40;10.97;;;4.00;;
8139;SDS011;4111;50.972;7.072;2023-02-01T01:36:10;11.57;;;4.10;;
8139;SDS011;4111;50.972;7.072;2023-02-01T01:38:40;15.20;;;4.83;;
8139;SDS011;4111;50.972;7.072;2023-02-01T01:41:08;11.53;;;4.00;;
8139;SDS011;4111;50.972;7.072;2023-02-01T01:43:45;13.80;;;4.33;;
8139;SDS011;4111;50.972;7.072;2023-02-01T01:46:27;12.17;;;3.47;;
8139;SDS011;4111;50.972;7.072;2023-02-01T01:51:32;12.90;;;4.33;;
8139;SDS011;4111;50.972;7.072;2023-02-01T01:54:10;12.90;;;3.97;;
8139;SDS011;4111;50.972;7.072;2023-02-01T01:56:43;10.97;;;3.80;;
8139;SDS011;4111;50.972;7.072;2023-02-01T01:59:17;12.47;;;3.33;;
8139;SDS011;4111;50.972;7.072;2023-02-01T02:01:44;10.93;;;3.93;;
8139;SDS011;4111;50.972;7.072;2023-02-01T02:04:11;10.03;;;3.37;;
8139;SDS011;4111;50.972;7.072;2023-02-01T02:09:26;14.80;;;3.60;;
8139;SDS011;4111;50.972;7.072;2023-02-01T02:11:53;13.43;;;3.70;;
8139;SDS011;4111;50.972;7.072;2023-02-01T02:14:20;10.17;;;3.67;;
8139;SDS011;4111;50.972;7.072;2023-02-01T02:36:43;12.23;;;3.43;;
8139;SDS011;4111;50.972;7.072;2023-02-01T02:39:20;16.50;;;3.87;;
8139;SDS011;4111;50.972;7.072;2023-02-01T02:41:59;15.07;;;3.53;;
8139;SDS011;4111;50.972;7.072;2023-02-01T02:45:02;13.80;;;4.17;;
8139;SDS011;4111;50.972;7.072;2023-02-01T02:50:49;13.93;;;3.43;;
8139;SDS011;4111;50.972;7.072;2023-02-01T02:53:47;14.30;;;4.37;;
8139;SDS011;4111;50.972;7.072;2023-02-01T02:56:38;15.70;;;4.27;;
8139;SDS011;4111;50.972;7.072;2023-02-01T02:59:24;9.57;;;3.20;;
8139;SDS011;4111;50.972;7.072;2023-02-01T03:02:11;10.00;;;3.80;;
8139;SDS011;4111;50.972;7.072;2023-02-01T03:04:58;14.93;;;4.03;;
8139;SDS011;4111;50.972;7.072;2023-02-01T03:10:16;14.13;;;3.63;;
8139;SDS011;4111;50.972;7.072;2023-02-01T03:12:49;13.50;;;4.13;;
8139;SDS011;4111;50.972;7.072;2023-02-01T03:15:26;11.50;;;3.83;;
8139;SDS011;4111;50.972;7.072;2023-02-01T03:18:01;16.60;;;4.50;;
8139;SDS011;4111;50.972;7.072;2023-02-01T03:20:33;11.43;;;4.30;;
8139;SDS011;4111;50.972;7.072;2023-02-01T03:23:01;12.07;;;4.17;;
8139;SDS011;4111;50.972;7.072;2023-02-01T03:25:32;9.93;;;4.53;;
8139;SDS011;4111;50.972;7.072;2023-02-01T03:28:01;17.80;;;5.23;;
8139;SDS011;4111;50.972;7.072;2023-02-01T03:30:41;11.10;;;4.07;;
8139;SDS011;4111;50.972;7.072;2023-02-01T03:33:14;15.17;;;4.90;;
8139;SDS011;4111;50.972;7.072;2023-02-01T03:35:55;15.67;;;4.90;;
8139;SDS011;4111;50.972;7.072;2023-02-01T03:41:12;12.53;;;4.87;;
8139;SDS011;4111;50.972;7.072;2023-02-01T03:44:06;16.77;;;4.80;;
8139;SDS011;4111;50.972;7.072;2023-02-01T03:49:37;11.37;;;4.63;;
8139;SDS011;4111;50.972;7.072;2023-02-01T03:52:13;9.83;;;4.50;;
8139;SDS011;4111;50.972;7.072;2023-02-01T03:54:42;13.47;;;4.37;;
8139;SDS011;4111;50.972;7.072;2023-02-01T03:57:11;17.57;;;5.33;;
8139;SDS011;4111;50.972;7.072;2023-02-01T03:59:41;18.30;;;4.87;;
8139;SDS011;4111;50.972;7.072;2023-02-01T04:02:08;16.70;;;4.27;;
8139;SDS011;4111;50.972;7.072;2023-02-01T04:04:35;14.73;;;4.80;;
8139;SDS011;4111;50.972;7.072;2023-02-01T04:07:01;17.33;;;4.43;;
8139;SDS011;4111;50.972;7.072;2023-02-01T04:09:29;18.37;;;4.67;;
8139;SDS011;4111;50.972;7.072;2023-02-01T04:11:55;16.90;;;5.20;;
8139;SDS011;4111;50.972;7.072;2023-02-01T04:14:22;16.13;;;4.97;;
8139;SDS011;4111;50.972;7.072;2023-02-01T04:16:48;15.67;;;4.50;;
8139;SDS011;4111;50.972;7.072;2023-02-01T04:19:15;17.37;;;4.50;;
8139;SDS011;4111;50.972;7.072;2023-02-01T04:21:41;15.77;;;4.60;;
8139;SDS011;4111;50.972;7.072;2023-02-01T04:24:08;12.30;;;4.30;;
8139;SDS011;4111;50.972;7.072;2023-02-01T04:26:34;15.73;;;4.87;;
8139;SDS011;4111;50.972;7.072;2023-02-01T04:29:01;18.30;;;5.17;;
8139;SDS011;4111;50.972;7.072;2023-02-01T04:31:28;12.97;;;3.87;;
8139;SDS011;4111;50.972;7.072;2023-02-01T04:33:55;18.10;;;4.13;;
8139;SDS011;4111;50.972;7.072;2023-02-01T04:36:23;11.17;;;3.87;;
8139;SDS011;4111;50.972;7.072;2023-02-01T04:38:50;13.47;;;4.47;;
8139;SDS011;4111;50.972;7.072;2023-02-01T04:41:17;17.73;;;4.53;;
8139;SDS011;4111;50.972;7.072;2023-02-01T04:43:46;15.43;;;4.20;;
8139;SDS011;4111;50.972;7.072;2023-02-01T04:46:13;16.00;;;4.57;;
8139;SDS011;4111;50.972;7.072;2023-02-01T04:48:39;15.57;;;3.63;;
8139;SDS011;4111;50.972;7.072;2023-02-01T04:51:06;17.10;;;5.77;;
8139;SDS011;4111;50.972;7.072;2023-02-01T04:53:33;15.33;;;4.67;;
8139;SDS011;4111;50.972;7.072;2023-02-01T04:55:59;16.07;;;5.23;;
8139;SDS011;4111;50.972;7.072;2023-02-01T04:58:26;17.57;;;4.80;;
8139;SDS011;4111;50.972;7.072;2023-02-01T05:00:52;12.97;;;4.30;;
8139;SDS011;4111;50.972;7.072;2023-02-01T05:03:19;17.70;;;4.47;;
8139;SDS011;4111;50.972;7.072;2023-02-01T05:05:47;11.73;;;3.77;;
8139;SDS011;4111;50.972;7.072;2023-02-01T05:08:14;11.67;;;4.00;;
8139;SDS011;4111;50.972;7.072;2023-02-01T05:10:41;14.57;;;4.63;;
8139;SDS011;4111;50.972;7.072;2023-02-01T05:13:08;13.97;;;3.83;;
8139;SDS011;4111;50.972;7.072;2023-02-01T05:15:54;19.37;;;4.53;;
8139;SDS011;4111;50.972;7.072;2023-02-01T05:18:20;14.90;;;4.60;;
8139;SDS011;4111;50.972;7.072;2023-02-01T05:20:47;13.70;;;3.50;;
8139;SDS011;4111;50.972;7.072;2023-02-01T05:23:13;13.97;;;3.93;;
8139;SDS011;4111;50.972;7.072;2023-02-01T05:25:40;15.37;;;4.83;;
8139;SDS011;4111;50.972;7.072;2023-02-01T05:28:06;15.30;;;4.03;;
8139;SDS011;4111;50.972;7.072;2023-02-01T05:30:32;18.07;;;4.37;;
8139;SDS011;4111;50.972;7.072;2023-02-01T05:33:01;17.83;;;4.03;;
8139;SDS011;4111;50.972;7.072;2023-02-01T05:35:29;18.60;;;3.77;;
8139;SDS011;4111;50.972;7.072;2023-02-01T05:37:56;17.13;;;3.90;;
8139;SDS011;4111;50.972;7.072;2023-02-01T05:40:22;18.07;;;4.00;;
8139;SDS011;4111;50.972;7.072;2023-02-01T05:42:49;16.33;;;4.10;;
8139;SDS011;4111;50.972;7.072;2023-02-01T05:45:16;17.13;;;3.97;;
8139;SDS011;4111;50.972;7.072;2023-02-01T05:47:42;11.87;;;3.80;;
8139;SDS011;4111;50.972;7.072;2023-02-01T05:50:09;12.77;;;3.93;;
8139;SDS011;4111;50.972;7.072;2023-02-01T05:52:35;14.57;;;4.10;;
8139;SDS011;4111;50.972;7.072;2023-02-01T05:55:02;14.33;;;3.90;;
8139;SDS011;4111;50.972;7.072;2023-02-01T05:57:29;15.30;;;4.37;;
8139;SDS011;4111;50.972;7.072;2023-02-01T05:59:56;11.80;;;3.43;;
8139;SDS011;4111;50.972;7.072;2023-02-01T06:02:25;18.07;;;4.10;;
8139;SDS011;4111;50.972;7.072;2023-02-01T06:04:51;12.63;;;3.80;;
8139;SDS011;4111;50.972;7.072;2023-02-01T06:07:18;22.63;;;4.83;;
8139;SDS011;4111;50.972;7.072;2023-02-01T06:09:44;17.87;;;4.53;;
8139;SDS011;4111;50.972;7.072;2023-02-01T06:12:11;15.10;;;4.10;;
8139;SDS011;4111;50.972;7.072;2023-02-01T06:14:38;26.43;;;5.03;;
8139;SDS011;4111;50.972;7.072;2023-02-01T06:17:04;19.40;;;4.10;;
8139;SDS011;4111;50.972;7.072;2023-02-01T06:19:32;13.87;;;3.70;;
8139;SDS011;4111;50.972;7.072;2023-02-01T06:21:58;11.43;;;3.80;;
8139;SDS011;4111;50.972;7.072;2023-02-01T06:24:25;13.20;;;3.47;;
8139;SDS011;4111;50.972;7.072;2023-02-01T06:26:51;14.73;;;4.13;;
8139;SDS011;4111;50.972;7.072;2023-02-01T06:29:18;15.97;;;4.13;;
8139;SDS011;4111;50.972;7.072;2023-02-01T06:31:44;15.70;;;3.67;;
8139;SDS011;4111;50.972;7.072;2023-02-01T06:34:11;14.73;;;3.87;;
8139;SDS011;4111;50.972;7.072;2023-02-01T06:36:38;17.27;;;4.23;;
8139;SDS011;4111;50.972;7.072;2023-02-01T06:39:04;19.97;;;4.27;;
8139;SDS011;4111;50.972;7.072;2023-02-01T06:41:31;15.50;;;4.03;;
8139;SDS011;4111;50.972;7.072;2023-02-01T06:43:57;14.83;;;3.57;;
8139;SDS011;4111;50.972;7.072;2023-02-01T06:46:23;13.60;;;4.13;;
8139;SDS011;4111;50.972;7.072;2023-02-01T06:48:50;15.37;;;4.40;;
8139;SDS011;4111;50.972;7.072;2023-02-01T06:51:21;18.17;;;4.50;;
8139;SDS011;4111;50.972;7.072;2023-02-01T06:53:49;19.53;;;4.43;;
8139;SDS011;4111;50.972;7.072;2023-02-01T06:56:15;11.23;;;4.10;;
8139;SDS011;4111;50.972;7.072;2023-02-01T06:58:42;18.47;;;5.10;;
8139;SDS011;4111;50.972;7.072;2023-02-01T07:01:09;11.93;;;3.70;;
8139;SDS011;4111;50.972;7.072;2023-02-01T07:03:37;20.40;;;4.33;;
8139;SDS011;4111;50.972;7.072;2023-02-01T07:06:04;15.80;;;4.00;;
8139;SDS011;4111;50.972;7.072;2023-02-01T07:08:31;13.07;;;4.07;;
8139;SDS011;4111;50.972;7.072;2023-02-01T07:11:07;17.13;;;3.80;;
8139;SDS011;4111;50.972;7.072;2023-02-01T07:13:36;15.93;;;4.20;;
8139;SDS011;4111;50.972;7.072;2023-02-01T07:16:04;14.03;;;4.10;;
8139;SDS011;4111;50.972;7.072;2023-02-01T07:18:33;18.97;;;4.73;;
8139;SDS011;4111;50.972;7.072;2023-02-01T07:20:59;13.43;;;4.33;;
8139;SDS011;4111;50.972;7.072;2023-02-01T07:23:26;15.13;;;4.17;;
8139;SDS011;4111;50.972;7.072;2023-02-01T07:25:57;15.50;;;3.53;;
8139;SDS011;4111;50.972;7.072;2023-02-01T07:28:25;15.10;;;4.23;;
8139;SDS011;4111;50.972;7.072;2023-02-01T07:30:54;18.13;;;4.20;;
8139;SDS011;4111;50.972;7.072;2023-02-01T07:33:21;15.63;;;3.80;;
8139;SDS011;4111;50.972;7.072;2023-02-01T07:35:53;18.90;;;5.10;;
8139;SDS011;4111;50.972;7.072;2023-02-01T07:38:19;14.80;;;4.50;;
8139;SDS011;4111;50.972;7.072;2023-02-01T07:40:47;13.63;;;4.40;;
8139;SDS011;4111;50.972;7.072;2023-02-01T07:43:14;14.80;;;4.17;;
8139;SDS011;4111;50.972;7.072;2023-02-01T07:45:40;14.90;;;4.20;;
8139;SDS011;4111;50.972;7.072;2023-02-01T07:48:06;18.50;;;4.47;;
8139;SDS011;4111;50.972;7.072;2023-02-01T07:50:33;14.80;;;3.90;;
8139;SDS011;4111;50.972;7.072;2023-02-01T07:52:59;18.10;;;4.90;;
8139;SDS011;4111;50.972;7.072;2023-02-01T07:55:27;15.90;;;4.47;;
8139;SDS011;4111;50.972;7.072;2023-02-01T07:57:56;21.10;;;4.50;;
8139;SDS011;4111;50.972;7.072;2023-02-01T08:00:23;13.00;;;4.20;;
8139;SDS011;4111;50.972;7.072;2023-02-01T08:03:08;17.17;;;3.87;;
8139;SDS011;4111;50.972;7.072;2023-02-01T08:05:34;16.97;;;4.33;;
8139;SDS011;4111;50.972;7.072;2023-02-01T08:08:02;14.77;;;4.30;;
8139;SDS011;4111;50.972;7.072;2023-02-01T08:10:29;21.60;;;4.77;;
8139;SDS011;4111;50.972;7.072;2023-02-01T08:12:59;17.70;;;4.57;;
8139;SDS011;4111;50.972;7.072;2023-02-01T08:15:26;16.23;;;4.37;;
8139;SDS011;4111;50.972;7.072;2023-02-01T08:17:53;19.27;;;4.77;;
8139;SDS011;4111;50.972;7.072;2023-02-01T08:20:21;16.00;;;4.17;;
8139;SDS011;4111;50.972;7.072;2023-02-01T08:22:54;16.10;;;4.30;;
8139;SDS011;4111;50.972;7.072;2023-02-01T08:25:21;16.03;;;4.20;;
8139;SDS011;4111;50.972;7.072;2023-02-01T08:27:48;14.50;;;4.03;;
8139;SDS011;4111;50.972;7.072;2023-02-01T08:30:15;12.93;;;4.00;;
8139;SDS011;4111;50.972;7.072;2023-02-01T08:32:41;23.30;;;4.53;;
8139;SDS011;4111;50.972;7.072;2023-02-01T08:35:08;20.67;;;4.30;;
8139;SDS011;4111;50.972;7.072;2023-02-01T08:37:37;19.70;;;4.63;;
8139;SDS011;4111;50.972;7.072;2023-02-01T08:40:14;16.77;;;3.97;;
8139;SDS011;4111;50.972;7.072;2023-02-01T08:42:41;15.87;;;4.47;;
8139;SDS011;4111;50.972;7.072;2023-02-01T08:45:17;12.80;;;4.03;;
8139;SDS011;4111;50.972;7.072;2023-02-01T08:47:48;13.63;;;3.77;;
8139;SDS011;4111;50.972;7.072;2023-02-01T08:50:14;15.63;;;4.23;;
8139;SDS011;4111;50.972;7.072;2023-02-01T08:52:41;15.40;;;3.97;;
8139;SDS011;4111;50.972;7.072;2023-02-01T08:55:08;19.23;;;4.10;;
8139;SDS011;4111;50.972;7.072;2023-02-01T08:57:35;15.63;;;4.33;;
8139;SDS011;4111;50.972;7.072;2023-02-01T09:00:02;12.90;;;4.07;;
8139;SDS011;4111;50.972;7.072;2023-02-01T09:02:30;19.60;;;4.33;;
8139;SDS011;4111;50.972;7.072;2023-02-01T09:04:57;22.63;;;4.73;;
8139;SDS011;4111;50.972;7.072;2023-02-01T09:07:25;24.00;;;4.33;;
8139;SDS011;4111;50.972;7.072;2023-02-01T09:09:52;18.20;;;4.40;;
8139;SDS011;4111;50.972;7.072;2023-02-01T09:12:20;13.03;;;3.70;;
8139;SDS011;4111;50.972;7.072;2023-02-01T09:14:47;17.00;;;4.50;;
8139;SDS011;4111;50.972;7.072;2023-02-01T09:17:13;15.40;;;3.80;;
8139;SDS011;4111;50.972;7.072;2023-02-01T09:19:40;18.00;;;4.70;;
8139;SDS011;4111;50.972;7.072;2023-02-01T09:22:08;11.20;;;3.50;;
8139;SDS011;4111;50.972;7.072;2023-02-01T09:24:34;12.97;;;4.50;;
8139;SDS011;4111;50.972;7.072;2023-02-01T09:27:01;14.47;;;4.63;;
8139;SDS011;4111;50.972;7.072;2023-02-01T09:29:27;10.47;;;3.47;;
8139;SDS011;4111;50.972;7.072;2023-02-01T09:31:54;15.23;;;4.37;;
8139;SDS011;4111;50.972;7.072;2023-02-01T09:34:29;13.57;;;4.00;;
8139;SDS011;4111;50.972;7.072;2023-02-01T09:36:55;13.10;;;4.27;;
8139;SDS011;4111;50.972;7.072;2023-02-01T09:39:22;16.73;;;3.47;;
8139;SDS011;4111;50.972;7.072;2023-02-01T09:44:38;13.13;;;4.23;;
8139;SDS011;4111;50.972;7.072;2023-02-01T09:47:13;14.40;;;3.30;;
8139;SDS011;4111;50.972;7.072;2023-02-01T09:49:48;18.10;;;4.33;;
8139;SDS011;4111;50.972;7.072;2023-02-01T09:52:25;12.97;;;4.50;;
8139;SDS011;4111;50.972;7.072;2023-02-01T09:54:58;13.50;;;3.43;;
8139;SDS011;4111;50.972;7.072;2023-02-01T09:57:39;12.40;;;3.77;;
8139;SDS011;4111;50.972;7.072;2023-02-01T10:00:22;15.37;;;4.00;;
8139;SDS011;4111;50.972;7.072;2023-02-01T10:02:53;14.37;;;4.10;;
8139;SDS011;4111;50.972;7.072;2023-02-01T10:08:20;13.50;;;4.27;;
8139;SDS011;4111;50.972;7.072;2023-02-01T10:10:57;9.80;;;4.20;;
8139;SDS011;4111;50.972;7.072;2023-02-01T10:13:44;11.67;;;3.50;;
8139;SDS011;4111;50.972;7.072;2023-02-01T10:19:39;15.10;;;4.43;;
8139;SDS011;4111;50.972;7.072;2023-02-01T10:22:08;15.63;;;3.97;;
8139;SDS011;4111;50.972;7.072;2023-02-01T10:27:24;13.00;;;4.00;;
8139;SDS011;4111;50.972;7.072;2023-02-01T10:29:59;14.87;;;4.03;;
8139;SDS011;4111;50.972;7.072;2023-02-01T10:32:33;13.90;;;4.57;;
8139;SDS011;4111;50.972;7.072;2023-02-01T10:35:05;12.33;;;4.10;;
8139;SDS011;4111;50.972;7.072;2023-02-01T10:37:39;12.30;;;3.80;;
8139;SDS011;4111;50.972;7.072;2023-02-01T10:42:40;14.80;;;4.10;;
8139;SDS011;4111;50.972;7.072;2023-02-01T10:45:11;14.40;;;4.20;;
8139;SDS011;4111;50.972;7.072;2023-02-01T10:47:46;13.70;;;4.33;;
8139;SDS011;4111;50.972;7.072;2023-02-01T10:50:17;17.10;;;4.60;;
8139;SDS011;4111;50.972;7.072;2023-02-01T10:52:58;15.17;;;4.30;;
8139;SDS011;4111;50.972;7.072;2023-02-01T10:58:16;13.80;;;3.90;;
8139;SDS011;4111;50.972;7.072;2023-02-01T11:03:21;11.07;;;3.23;;
8139;SDS011;4111;50.972;7.072;2023-02-01T11:05:58;12.10;;;3.93;;
8139;SDS011;4111;50.972;7.072;2023-02-01T11:08:25;13.77;;;3.37;;
8139;SDS011;4111;50.972;7.072;2023-02-01T11:11:00;17.70;;;3.70;;
8139;SDS011;4111;50.972;7.072;2023-02-01T11:13:30;14.40;;;4.27;;
8139;SDS011;4111;50.972;7.072;2023-02-01T11:15:59;13.70;;;3.80;;
8139;SDS011;4111;50.972;7.072;2023-02-01T11:18:31;17.00;;;3.83;;
8139;SDS011;4111;50.972;7.072;2023-02-01T11:21:01;14.57;;;3.93;;
8139;SDS011;4111;50.972;7.072;2023-02-01T11:23:29;14.23;;;4.10;;
8139;SDS011;4111;50.972;7.072;2023-02-01T11:26:00;14.03;;;4.40;;
8139;SDS011;4111;50.972;7.072;2023-02-01T11:28:33;17.90;;;4.47;;
8139;SDS011;4111;50.972;7.072;2023-02-01T11:31:05;16.10;;;4.50;;
8139;SDS011;4111;50.972;7.072;2023-02-01T11:33:36;15.47;;;4.70;;
8139;SDS011;4111;50.972;7.072;2023-02-01T11:36:08;22.17;;;5.30;;
8139;SDS011;4111;50.972;7.072;2023-02-01T11:38:38;14.63;;;4.60;;
8139;SDS011;4111;50.972;7.072;2023-02-01T11:41:20;13.17;;;3.70;;
8139;SDS011;4111;50.972;7.072;2023-02-01T11:46:20;18.77;;;3.93;;
8139;SDS011;4111;50.972;7.072;2023-02-01T11:48:52;12.87;;;3.87;;
8139;SDS011;4111;50.972;7.072;2023-02-01T11:57:15;15.80;;;4.13;;
8139;SDS011;4111;50.972;7.072;2023-02-01T12:00:00;14.10;;;4.13;;
8139;SDS011;4111;50.972;7.072;2023-02-01T12:02:55;16.57;;;4.10;;
8139;SDS011;4111;50.972;7.072;2023-02-01T12:05:34;12.97;;;4.57;;
8139;SDS011;4111;50.972;7.072;2023-02-01T12:11:34;9.53;;;3.70;;
8139;SDS011;4111;50.972;7.072;2023-02-01T12:17:50;11.90;;;3.50;;
8139;SDS011;4111;50.972;7.072;2023-02-01T12:28:26;12.80;;;3.70;;
8139;SDS011;4111;50.972;7.072;2023-02-01T12:36:32;16.43;;;3.67;;
8139;SDS011;4111;50.972;7.072;2023-02-01T12:39:15;14.30;;;4.10;;
8139;SDS011;4111;50.972;7.072;2023-02-01T12:47:22;7.97;;;3.10;;
8139;SDS011;4111;50.972;7.072;2023-02-01T12:49:54;12.70;;;3.87;;
8139;SDS011;4111;50.972;7.072;2023-02-01T12:54:55;12.83;;;3.83;;
8139;SDS011;4111;50.972;7.072;2023-02-01T12:57:35;13.90;;;3.80;;
8139;SDS011;4111;50.972;7.072;2023-02-01T13:00:09;10.40;;;3.33;;
8139;SDS011;4111;50.972;7.072;2023-02-01T13:02:56;17.30;;;4.83;;
8139;SDS011;4111;50.972;7.072;2023-02-01T13:06:12;15.27;;;3.97;;
8139;SDS011;4111;50.972;7.072;2023-02-01T13:11:33;14.27;;;3.40;;
8139;SDS011;4111;50.972;7.072;2023-02-01T13:16:44;14.07;;;3.83;;
8139;SDS011;4111;50.972;7.072;2023-02-01T13:19:57;13.60;;;3.50;;
8139;SDS011;4111;50.972;7.072;2023-02-01T13:22:04;11.53;;;3.30;;
8139;SDS011;4111;50.972;7.072;2023-02-01T13:27:12;27.17;;;5.17;;
8139;SDS011;4111;50.972;7.072;2023-02-01T13:29:55;16.13;;;3.80;;
8139;SDS011;4111;50.972;7.072;2023-02-01T13:32:28;15.07;;;3.60;;
8139;SDS011;4111;50.972;7.072;2023-02-01T13:35:40;16.57;;;4.17;;
8139;SDS011;4111;50.972;7.072;2023-02-01T13:43:53;13.97;;;3.40;;
8139;SDS011;4111;50.972;7.072;2023-02-01T13:46:24;23.17;;;4.20;;
8139;SDS011;4111;50.972;7.072;2023-02-01T13:48:55;10.70;;;3.30;;
8139;SDS011;4111;50.972;7.072;2023-02-01T13:51:37;12.03;;;3.80;;
8139;SDS011;4111;50.972;7.072;2023-02-01T13:54:23;17.87;;;4.20;;
8139;SDS011;4111;50.972;7.072;2023-02-01T13:56:52;14.77;;;3.77;;
8139;SDS011;4111;50.972;7.072;2023-02-01T14:05:10;16.43;;;3.80;;
8139;SDS011;4111;50.972;7.072;2023-02-01T14:21:23;14.97;;;4.00;;
8139;SDS011;4111;50.972;7.072;2023-02-01T14:32:00;15.13;;;3.50;;
8139;SDS011;4111;50.972;7.072;2023-02-01T14:37:10;15.83;;;3.60;;
8139;SDS011;4111;50.972;7.072;2023-02-01T14:47:49;16.67;;;4.17;;
8139;SDS011;4111;50.972;7.072;2023-02-01T14:50:27;8.80;;;3.33;;
8139;SDS011;4111;50.972;7.072;2023-02-01T15:01:21;12.47;;;3.43;;
8139;SDS011;4111;50.972;7.072;2023-02-01T15:06:42;15.07;;;3.33;;
8139;SDS011;4111;50.972;7.072;2023-02-01T15:09:11;9.30;;;3.10;;
8139;SDS011;4111;50.972;7.072;2023-02-01T15:14:33;10.63;;;3.40;;
8139;SDS011;4111;50.972;7.072;2023-02-01T15:17:02;8.50;;;2.83;;
8139;SDS011;4111;50.972;7.072;2023-02-01T15:19:29;13.50;;;3.07;;
8139;SDS011;4111;50.972;7.072;2023-02-01T15:21:57;8.53;;;3.10;;
8139;SDS011;4111;50.972;7.072;2023-02-01T15:24:26;11.50;;;3.40;;
8139;SDS011;4111;50.972;7.072;2023-02-01T15:26:54;10.53;;;3.43;;
8139;SDS011;4111;50.972;7.072;2023-02-01T15:29:22;9.83;;;3.03;;
8139;SDS011;4111;50.972;7.072;2023-02-01T15:31:53;12.47;;;3.37;;
8139;SDS011;4111;50.972;7.072;2023-02-01T15:34:21;13.33;;;3.03;;
8139;SDS011;4111;50.972;7.072;2023-02-01T15:36:47;7.17;;;2.80;;
8139;SDS011;4111;50.972;7.072;2023-02-01T15:39:28;9.37;;;2.77;;
8139;SDS011;4111;50.972;7.072;2023-02-01T15:41:59;12.60;;;3.53;;
8139;SDS011;4111;50.972;7.072;2023-02-01T15:44:38;10.70;;;3.10;;
8139;SDS011;4111;50.972;7.072;2023-02-01T15:47:08;8.93;;;2.63;;
8139;SDS011;4111;50.972;7.072;2023-02-01T15:49:41;8.60;;;2.70;;
8139;SDS011;4111;50.972;7.072;2023-02-01T15:52:21;9.53;;;2.80;;
8139;SDS011;4111;50.972;7.072;2023-02-01T15:54:54;14.57;;;3.67;;
8139;SDS011;4111;50.972;7.072;2023-02-01T15:57:35;14.10;;;3.87;;
8139;SDS011;4111;50.972;7.072;2023-02-01T16:00:24;7.13;;;2.90;;
8139;SDS011;4111;50.972;7.072;2023-02-01T16:03:02;9.70;;;3.00;;
8139;SDS011;4111;50.972;7.072;2023-02-01T16:08:15;11.67;;;3.57;;
8139;SDS011;4111;50.972;7.072;2023-02-01T16:10:48;14.33;;;3.33;;
8139;SDS011;4111;50.972;7.072;2023-02-01T16:13:17;13.53;;;4.03;;
8139;SDS011;4111;50.972;7.072;2023-02-01T16:15:46;10.50;;;3.30;;
8139;SDS011;4111;50.972;7.072;2023-02-01T16:18:14;11.90;;;3.23;;
8139;SDS011;4111;50.972;7.072;2023-02-01T16:20:44;15.47;;;3.60;;
8139;SDS011;4111;50.972;7.072;2023-02-01T16:23:11;9.83;;;3.57;;
8139;SDS011;4111;50.972;7.072;2023-02-01T16:25:38;12.57;;;3.53;;
8139;SDS011;4111;50.972;7.072;2023-02-01T16:28:05;14.70;;;3.30;;
8139;SDS011;4111;50.972;7.072;2023-02-01T16:30:32;12.93;;;3.83;;
8139;SDS011;4111;50.972;7.072;2023-02-01T16:32:59;12.33;;;2.83;;
8139;SDS011;4111;50.972;7.072;2023-02-01T16:35:32;12.47;;;3.27;;
8139;SDS011;4111;50.972;7.072;2023-02-01T16:38:04;12.57;;;3.40;;
8139;SDS011;4111;50.972;7.072;2023-02-01T16:40:34;10.43;;;3.63;;
8139;SDS011;4111;50.972;7.072;2023-02-01T16:43:01;11.43;;;3.63;;
8139;SDS011;4111;50.972;7.072;2023-02-01T16:45:28;15.83;;;2.90;;
8139;SDS011;4111;50.972;7.072;2023-02-01T16:48:05;8.63;;;3.03;;
8139;SDS011;4111;50.972;7.072;2023-02-01T16:51:02;10.03;;;3.47;;
8139;SDS011;4111;50.972;7.072;2023-02-01T16:53:33;8.73;;;3.30;;
8139;SDS011;4111;50.972;7.072;2023-02-01T16:56:18;12.63;;;3.37;;
8139;SDS011;4111;50.972;7.072;2023-02-01T16:58:45;11.83;;;3.87;;
8139;SDS011;4111;50.972;7.072;2023-02-01T17:01:13;12.93;;;3.80;;
8139;SDS011;4111;50.972;7.072;2023-02-01T17:03:44;14.53;;;4.57;;
8139;SDS011;4111;50.972;7.072;2023-02-01T17:06:15;15.37;;;3.30;;
8139;SDS011;4111;50.972;7.072;2023-02-01T17:08:45;13.23;;;3.53;;
8139;SDS011;4111;50.972;7.072;2023-02-01T17:11:16;12.83;;;3.23;;
8139;SDS011;4111;50.972;7.072;2023-02-01T17:13:43;15.83;;;3.60;;
8139;SDS011;4111;50.972;7.072;2023-02-01T17:18:46;10.93;;;3.40;;
8139;SDS011;4111;50.972;7.072;2023-02-01T17:21:18;14.87;;;3.40;;
8139;SDS011;4111;50.972;7.072;2023-02-01T17:23:49;15.97;;;4.33;;
8139;SDS011;4111;50.972;7.072;2023-02-01T17:26:16;12.03;;;3.53;;
8139;SDS011;4111;50.972;7.072;2023-02-01T17:28:42;11.20;;;3.50;;
8139;SDS011;4111;50.972;7.072;2023-02-01T17:31:11;14.27;;;3.30;;
8139;SDS011;4111;50.972;7.072;2023-02-01T17:33:42;10.03;;;3.37;;
8139;SDS011;4111;50.972;7.072;2023-02-01T17:36:11;9.10;;;3.30;;
8139;SDS011;4111;50.972;7.072;2023-02-01T17:38:39;10.37;;;3.43;;
8139;SDS011;4111;50.972;7.072;2023-02-01T17:41:08;8.13;;;3.23;;
8139;SDS011;4111;50.972;7.072;2023-02-01T17:43:36;10.07;;;3.37;;
8139;SDS011;4111;50.972;7.072;2023-02-01T17:46:10;17.97;;;4.30;;
8139;SDS011;4111;50.972;7.072;2023-02-01T17:48:39;18.20;;;4.40;;
8139;SDS011;4111;50.972;7.072;2023-02-01T17:51:13;12.37;;;3.60;;
8139;SDS011;4111;50.972;7.072;2023-02-01T17:53:42;19.33;;;4.47;;
8139;SDS011;4111;50.972;7.072;2023-02-01T17:56:11;11.63;;;3.67;;
8139;SDS011;4111;50.972;7.072;2023-02-01T17:58:45;14.20;;;4.00;;
8139;SDS011;4111;50.972;7.072;2023-02-01T18:01:13;17.97;;;4.47;;
8139;SDS011;4111;50.972;7.072;2023-02-01T18:03:44;20.50;;;4.43;;
8139;SDS011;4111;50.972;7.072;2023-02-01T18:06:12;16.90;;;4.53;;
8139;SDS011;4111;50.972;7.072;2023-02-01T18:08:40;11.23;;;4.43;;